createdAt,value
2022-12-31T00:00:19.308Z,4.75
2022-12-31T00:05:22.751Z,4.43
2022-12-31T00:10:25.072Z,3.72
2022-12-31T00:15:27.144Z,3.28
2022-12-31T00:20:29.427Z,3.58
2022-12-31T00:25:31.724Z,3.90
2022-12-31T00:30:34.479Z,3.67
2022-12-31T00:35:38.233Z,3.88
2022-12-31T00:40:40.255Z,4.25
2022-12-31T00:45:42.741Z,4.13
2022-12-31T00:50:45.594Z,3.33
2022-12-31T00:55:47.594Z,3.50
2022-12-31T01:00:49.953Z,3.55
2022-12-31T01:05:52.120Z,3.22
2022-12-31T01:11:12.717Z,4.13
2022-12-31T01:16:15.320Z,4.45
2022-12-31T01:21:18.422Z,4.28
2022-12-31T01:26:20.585Z,4.63
2022-12-31T01:31:23.676Z,4.13
2022-12-31T01:36:28.130Z,3.33
2022-12-31T01:41:32.743Z,3.67
2022-12-31T01:46:38.660Z,3.28
2022-12-31T01:51:41.917Z,3.28
2022-12-31T01:56:45.879Z,3.33
2022-12-31T02:01:53.238Z,3.17
2022-12-31T02:07:07.296Z,3.55
2022-12-31T02:12:12.259Z,3.47
2022-12-31T02:17:49.737Z,3.08
2022-12-31T02:28:27.491Z,3.20
2022-12-31T02:34:01.338Z,2.63
2022-12-31T02:39:04.829Z,2.42
2022-12-31T02:44:35.956Z,2.83
2022-12-31T02:50:07.454Z,3.00
2022-12-31T02:55:20.073Z,2.67
2022-12-31T03:00:40.556Z,2.63
2022-12-31T03:05:43.726Z,2.72
2022-12-31T03:10:45.757Z,2.50
2022-12-31T03:15:47.815Z,2.50
2022-12-31T03:21:10.039Z,2.22
2022-12-31T03:26:13.806Z,2.22
2022-12-31T03:31:16.523Z,2.78
2022-12-31T03:36:18.625Z,2.45
2022-12-31T03:41:20.594Z,2.03
2022-12-31T03:46:22.688Z,2.20
2022-12-31T03:51:24.893Z,2.67
2022-12-31T03:56:27.360Z,2.38
2022-12-31T04:01:29.385Z,2.42
2022-12-31T04:06:31.639Z,2.40
2022-12-31T04:11:34.887Z,2.97
2022-12-31T04:16:37.516Z,2.90
2022-12-31T04:21:39.825Z,2.25
2022-12-31T04:26:42.606Z,2.58
2022-12-31T04:31:46.038Z,1.90
2022-12-31T04:36:48.178Z,2.35
2022-12-31T04:41:50.695Z,2.78
2022-12-31T04:46:52.834Z,2.28
2022-12-31T04:51:54.973Z,2.65
2022-12-31T04:56:57.038Z,3.10
2022-12-31T05:01:59.186Z,2.40
2022-12-31T05:07:01.530Z,2.33
2022-12-31T05:12:03.671Z,2.83
2022-12-31T05:17:05.710Z,2.28
2022-12-31T05:22:26.452Z,2.80
2022-12-31T05:27:31.272Z,2.80
2022-12-31T05:32:33.880Z,2.70
2022-12-31T05:37:35.992Z,2.72
2022-12-31T05:42:38.173Z,2.80
2022-12-31T05:47:40.929Z,3.08
2022-12-31T05:52:47.396Z,2.30
2022-12-31T05:57:49.711Z,2.53
2022-12-31T06:02:51.779Z,3.10
2022-12-31T06:07:53.750Z,2.58
2022-12-31T06:12:55.729Z,2.92
2022-12-31T06:17:57.667Z,3.13
2022-12-31T06:23:00.163Z,2.92
2022-12-31T06:28:02.201Z,3.28
2022-12-31T06:33:04.186Z,2.90
2022-12-31T06:38:06.162Z,3.03
2022-12-31T06:43:08.054Z,2.42
2022-12-31T06:48:10.048Z,2.97
2022-12-31T06:53:12.144Z,2.60
2022-12-31T06:58:14.814Z,2.97
2022-12-31T07:03:22.916Z,3.42
2022-12-31T07:08:38.480Z,2.95
2022-12-31T07:14:01.536Z,3.58
2022-12-31T07:19:03.489Z,2.92
2022-12-31T07:24:09.591Z,3.00
2022-12-31T07:29:17.608Z,3.30
2022-12-31T07:35:34.526Z,3.30
2022-12-31T07:41:09.278Z,3.00
2022-12-31T07:46:34.150Z,3.75
2022-12-31T07:51:36.661Z,3.40
2022-12-31T07:56:38.795Z,3.28
2022-12-31T08:01:48.043Z,3.08
2022-12-31T08:07:41.447Z,3.35
2022-12-31T08:12:44.142Z,3.33
2022-12-31T08:17:46.291Z,2.72
2022-12-31T08:22:57.571Z,3.10
2022-12-31T08:28:18.050Z,4.10
2022-12-31T08:33:27.018Z,3.40
2022-12-31T08:38:47.331Z,3.45
2022-12-31T08:44:01.294Z,3.40
2022-12-31T08:49:03.575Z,3.10
2022-12-31T08:54:05.899Z,3.30
2022-12-31T08:59:24.533Z,3.20
2022-12-31T09:04:51.639Z,3.35
2022-12-31T09:09:56.428Z,3.70
2022-12-31T09:15:32.469Z,3.83
2022-12-31T09:20:44.416Z,3.38
2022-12-31T09:25:51.527Z,4.35
2022-12-31T09:31:08.707Z,4.10
2022-12-31T09:37:20.636Z,4.30
2022-12-31T09:42:53.169Z,4.35
2022-12-31T09:48:17.771Z,3.80
2022-12-31T09:53:35.582Z,4.30
2022-12-31T09:58:47.007Z,3.97
2022-12-31T10:04:20.040Z,3.63
2022-12-31T10:09:50.124Z,3.92
2022-12-31T10:20:19.303Z,3.92
2022-12-31T10:25:38.726Z,4.72
2022-12-31T10:31:02.029Z,6.57
2022-12-31T10:36:52.536Z,4.88
2022-12-31T10:42:12.995Z,5.38
2022-12-31T10:47:26.382Z,4.72
2022-12-31T10:53:03.220Z,7.07
2022-12-31T10:58:14.322Z,5.57
2022-12-31T11:03:49.664Z,6.82
2022-12-31T11:09:22.468Z,7.57
2022-12-31T11:14:43.335Z,4.53
2022-12-31T11:20:26.064Z,6.43
2022-12-31T11:25:30.395Z,4.85
2022-12-31T11:30:50.700Z,7.00
2022-12-31T11:35:56.054Z,5.55
2022-12-31T11:41:14.020Z,4.18
2022-12-31T11:46:31.398Z,5.25
2022-12-31T11:52:28.488Z,4.75
2022-12-31T11:57:35.062Z,4.40
2022-12-31T12:02:44.004Z,10.85
2022-12-31T12:07:47.515Z,6.50
2022-12-31T12:12:51.058Z,4.78
2022-12-31T12:17:55.503Z,4.85
2022-12-31T12:22:59.188Z,4.63
2022-12-31T12:28:25.161Z,4.53
2022-12-31T12:33:30.289Z,5.10
2022-12-31T12:38:32.199Z,5.30
2022-12-31T12:43:38.954Z,4.60
2022-12-31T12:48:43.918Z,3.95
2022-12-31T12:54:05.937Z,4.03
2022-12-31T12:59:21.081Z,4.35
2022-12-31T13:04:50.447Z,4.53
2022-12-31T13:10:17.419Z,3.65
2022-12-31T13:15:32.549Z,3.38
2022-12-31T13:21:08.915Z,3.80
2022-12-31T13:26:17.311Z,4.57
2022-12-31T13:31:34.677Z,5.38
2022-12-31T13:36:40.166Z,4.35
2022-12-31T13:41:47.215Z,3.58
2022-12-31T13:47:05.395Z,3.72
2022-12-31T13:52:47.078Z,4.38
2022-12-31T13:57:51.933Z,3.70
2022-12-31T14:03:08.687Z,4.22
2022-12-31T14:08:11.248Z,3.80
2022-12-31T14:13:34.335Z,3.30
2022-12-31T14:18:46.334Z,3.60
2022-12-31T14:24:16.730Z,3.03
2022-12-31T14:29:37.580Z,2.38
2022-12-31T14:34:59.719Z,2.53
2022-12-31T14:40:23.012Z,4.03
2022-12-31T14:45:40.521Z,8.35
2022-12-31T14:50:45.521Z,5.25
2022-12-31T14:55:57.937Z,6.75
2022-12-31T15:01:08.836Z,3.40
2022-12-31T15:11:40.993Z,2.92
2022-12-31T15:17:20.597Z,3.05
2022-12-31T15:22:45.450Z,2.20
2022-12-31T15:27:48.060Z,2.83
2022-12-31T15:32:51.014Z,2.88
2022-12-31T15:38:23.668Z,2.47
2022-12-31T15:50:15.205Z,2.42
2022-12-31T15:55:38.293Z,3.35
2022-12-31T16:00:49.176Z,3.53
2022-12-31T16:05:52.636Z,4.10
2022-12-31T16:10:56.047Z,4.13
2022-12-31T16:16:23.671Z,4.35
2022-12-31T16:21:51.980Z,4.95
2022-12-31T16:26:56.731Z,8.55
2022-12-31T16:37:02.893Z,5.57
2022-12-31T16:42:10.004Z,6.82
2022-12-31T16:47:20.668Z,5.55
2022-12-31T16:52:28.779Z,4.50
2022-12-31T16:57:32.542Z,4.95
2022-12-31T17:02:40.260Z,6.10
2022-12-31T17:07:44.236Z,6.93
2022-12-31T17:18:24.001Z,6.53
2022-12-31T17:23:32.315Z,5.47
2022-12-31T17:29:00.615Z,8.00
2022-12-31T17:34:06.837Z,7.80
2022-12-31T17:39:23.032Z,6.20
2022-12-31T17:44:28.096Z,9.68
2022-12-31T17:49:31.483Z,9.75
2022-12-31T17:54:33.535Z,9.20
2022-12-31T17:59:35.865Z,11.02
2022-12-31T18:04:37.888Z,16.05
2022-12-31T18:09:39.931Z,15.23
2022-12-31T18:14:43.247Z,17.42
2022-12-31T18:25:15.402Z,18.73
2022-12-31T18:30:17.922Z,20.70
2022-12-31T18:40:46.885Z,12.63
2022-12-31T18:45:49.575Z,6.53
2022-12-31T18:50:51.607Z,4.82
2022-12-31T18:55:58.741Z,4.53
2022-12-31T19:01:00.815Z,4.30
2022-12-31T19:06:02.941Z,4.93
2022-12-31T19:11:06.384Z,4.25
2022-12-31T19:16:09.654Z,4.10
2022-12-31T19:21:17.414Z,3.13
2022-12-31T19:26:21.144Z,3.80
2022-12-31T19:31:23.175Z,4.90
2022-12-31T19:36:25.161Z,5.25
2022-12-31T19:41:27.169Z,10.73
2022-12-31T19:46:29.060Z,6.75
2022-12-31T19:51:31.105Z,4.07
2022-12-31T19:56:33.206Z,3.63
2022-12-31T20:01:35.518Z,3.78
2022-12-31T20:06:37.531Z,4.25
2022-12-31T20:11:39.420Z,4.15
2022-12-31T20:16:41.489Z,3.47
2022-12-31T20:21:45.215Z,4.90
2022-12-31T20:26:47.304Z,4.28
2022-12-31T20:31:49.477Z,4.78
2022-12-31T20:36:51.460Z,4.53
2022-12-31T20:42:31.217Z,4.38
2022-12-31T20:47:33.281Z,24.73
2022-12-31T20:52:35.231Z,6.05
2022-12-31T20:57:37.853Z,4.35
2022-12-31T21:02:42.692Z,4.72
2022-12-31T21:12:53.337Z,5.93
2022-12-31T21:17:55.708Z,6.95
2022-12-31T21:22:57.714Z,4.88
2022-12-31T21:27:59.664Z,5.00
2022-12-31T21:33:01.776Z,6.53
2022-12-31T21:38:04.408Z,4.70
2022-12-31T21:43:06.382Z,5.57
2022-12-31T21:48:23.497Z,5.60
2022-12-31T21:53:32.314Z,11.50
2022-12-31T21:58:43.429Z,11.45
2022-12-31T22:03:45.588Z,9.80
2022-12-31T22:08:57.251Z,7.40
2022-12-31T22:13:59.299Z,6.78
2022-12-31T22:19:01.394Z,6.18
2022-12-31T22:24:03.457Z,7.25
2022-12-31T22:29:05.525Z,5.85
2022-12-31T22:34:07.707Z,5.82
2022-12-31T22:39:14.299Z,4.70
2022-12-31T22:44:36.334Z,5.45
2022-12-31T22:49:38.331Z,5.30
2022-12-31T22:54:40.275Z,6.03
2022-12-31T22:59:43.341Z,8.43
2022-12-31T23:04:45.332Z,7.15
2022-12-31T23:10:06.087Z,6.57
2022-12-31T23:15:28.808Z,6.63
2022-12-31T23:20:49.541Z,8.52
2022-12-31T23:25:52.785Z,10.02
2022-12-31T23:30:54.788Z,7.95
2022-12-31T23:36:07.382Z,13.52
2022-12-31T23:41:13.921Z,11.27
2022-12-31T23:46:17.021Z,6.50
2022-12-31T23:51:18.894Z,4.65
2022-12-31T23:56:23.707Z,4.90
